sensor_id;sensor_type;location;lat;lon;timestamp;pressure;altitude;pressure_sealevel;temperature;humidity
20037;BME280;10179;42.640;23.312;2022-12-18T00:01:03;94410.56;;;11.78;58.70
20037;BME280;10179;42.640;23.312;2022-12-18T00:03:35;94364.03;;;11.47;58.82
20037;BME280;10179;42.640;23.312;2022-12-18T00:06:00;94286.56;;;10.80;58.71
20037;BME280;10179;42.640;23.312;2022-12-18T00:08:26;94390.13;;;11.49;58.67
20037;BME280;10179;42.640;23.312;2022-12-18T00:10:51;94417.41;;;11.54;58.81
20037;BME280;10179;42.640;23.312;2022-12-18T00:13:17;94388.03;;;11.26;58.96
20037;BME280;10179;42.640;23.312;2022-12-18T00:15:42;94426.56;;;11.45;58.86
20037;BME280;10179;42.640;23.312;2022-12-18T00:18:08;94327.81;;;10.72;58.86
20037;BME280;10179;42.640;23.312;2022-12-18T00:20:38;94433.50;;;11.33;58.89
20037;BME280;10179;42.640;23.312;2022-12-18T00:23:05;94399.88;;;11.03;59.13
20037;BME280;10179;42.640;23.312;2022-12-18T00:25:33;94294.81;;;10.32;59.13
20037;BME280;10179;42.640;23.312;2022-12-18T00:27:59;94434.59;;;11.12;59.24
20037;BME280;10179;42.640;23.312;2022-12-18T00:30:25;94389.44;;;10.77;59.43
20037;BME280;10179;42.640;23.312;2022-12-18T00:32:50;94376.13;;;10.65;59.46
20037;BME280;10179;42.640;23.312;2022-12-18T00:35:15;94394.09;;;10.74;59.40
20037;BME280;10179;42.640;23.312;2022-12-18T00:37:41;94438.88;;;11.06;59.66
20037;BME280;10179;42.640;23.312;2022-12-18T00:40:07;94448.78;;;11.04;59.91
20037;BME280;10179;42.640;23.312;2022-12-18T00:42:32;94399.56;;;10.66;59.57
20037;BME280;10179;42.640;23.312;2022-12-18T00:45:17;94323.91;;;10.17;59.67
20037;BME280;10179;42.640;23.312;2022-12-18T00:47:42;94318.66;;;10.10;59.62
20037;BME280;10179;42.640;23.312;2022-12-18T00:50:08;94438.53;;;10.83;59.72
20037;BME280;10179;42.640;23.312;2022-12-18T00:52:34;94454.06;;;10.91;59.77
20037;BME280;10179;42.640;23.312;2022-12-18T00:54:59;94458.13;;;10.87;59.80
20037;BME280;10179;42.640;23.312;2022-12-18T00:57:25;94405.88;;;10.52;59.73
20037;BME280;10179;42.640;23.312;2022-12-18T00:59:50;94461.16;;;10.84;59.62
20037;BME280;10179;42.640;23.312;2022-12-18T01:02:16;94434.13;;;10.63;59.69
20037;BME280;10179;42.640;23.312;2022-12-18T01:04:41;94465.03;;;10.81;59.68
20037;BME280;10179;42.640;23.312;2022-12-18T01:07:06;94395.81;;;10.36;59.55
20037;BME280;10179;42.640;23.312;2022-12-18T01:09:32;94482.41;;;10.75;59.48
20037;BME280;10179;42.640;23.312;2022-12-18T01:11:57;94329.63;;;9.80;59.54
20037;BME280;10179;42.640;23.312;2022-12-18T01:14:22;94354.63;;;9.90;59.09
20037;BME280;10179;42.640;23.312;2022-12-18T01:16:48;94484.66;;;10.65;59.19
20037;BME280;10179;42.640;23.312;2022-12-18T01:19:13;94411.53;;;10.16;59.02
20037;BME280;10179;42.640;23.312;2022-12-18T01:21:39;94534.78;;;10.57;59.08
20037;BME280;10179;42.640;23.312;2022-12-18T01:24:05;94460.03;;;10.40;58.80
20037;BME280;10179;42.640;23.312;2022-12-18T01:26:31;94488.13;;;10.46;58.83
20037;BME280;10179;42.640;23.312;2022-12-18T01:28:57;94368.13;;;9.60;58.73
20037;BME280;10179;42.640;23.312;2022-12-18T01:31:28;94398.44;;;9.69;58.77
20037;BME280;10179;42.640;23.312;2022-12-18T01:33:54;94493.53;;;10.31;58.97
20037;BME280;10179;42.640;23.312;2022-12-18T01:36:22;94489.72;;;10.27;58.87
20037;BME280;10179;42.640;23.312;2022-12-18T01:38:48;94512.50;;;10.20;58.83
20037;BME280;10179;42.640;23.312;2022-12-18T01:41:17;94429.50;;;9.66;58.86
20037;BME280;10179;42.640;23.312;2022-12-18T01:44:46;94420.81;;;9.65;59.08
20037;BME280;10179;42.640;23.312;2022-12-18T01:46:48;94506.81;;;10.03;59.27
20037;BME280;10179;42.640;23.312;2022-12-18T01:49:13;94484.19;;;9.89;59.22
20037;BME280;10179;42.640;23.312;2022-12-18T01:51:39;94506.81;;;9.96;59.20
20037;BME280;10179;42.640;23.312;2022-12-18T01:54:04;94506.41;;;9.93;59.22
20037;BME280;10179;42.640;23.312;2022-12-18T01:56:30;94454.25;;;9.50;59.33
20037;BME280;10179;42.640;23.312;2022-12-18T01:59:02;94506.78;;;9.90;59.64
20037;BME280;10179;42.640;23.312;2022-12-18T02:01:30;94513.25;;;9.87;59.52
20037;BME280;10179;42.640;23.312;2022-12-18T02:03:56;94472.44;;;9.65;59.56
20037;BME280;10179;42.640;23.312;2022-12-18T02:06:33;94379.97;;;9.16;59.61
20037;BME280;10179;42.640;23.312;2022-12-18T02:09:13;94516.91;;;9.93;59.50
20037;BME280;10179;42.640;23.312;2022-12-18T02:16:54;94522.97;;;9.87;59.60
20037;BME280;10179;42.640;23.312;2022-12-18T02:27:18;94512.16;;;9.55;59.57
20037;BME280;10179;42.640;23.312;2022-12-18T02:29:49;94539.03;;;9.70;59.82
20037;BME280;10179;42.640;23.312;2022-12-18T02:32:22;94528.94;;;9.67;59.89
20037;BME280;10179;42.640;23.312;2022-12-18T02:34:50;94531.34;;;9.62;59.72
20037;BME280;10179;42.640;23.312;2022-12-18T02:37:18;94530.72;;;9.60;59.94
20037;BME280;10179;42.640;23.312;2022-12-18T02:39:46;94500.16;;;9.32;59.89
20037;BME280;10179;42.640;23.312;2022-12-18T02:42:13;94539.59;;;9.52;59.81
20037;BME280;10179;42.640;23.312;2022-12-18T02:44:51;94507.03;;;9.33;60.04
20037;BME280;10179;42.640;23.312;2022-12-18T02:47:20;94391.78;;;8.51;60.07
20037;BME280;10179;42.640;23.312;2022-12-18T02:55:34;94540.53;;;9.38;60.03
20037;BME280;10179;42.640;23.312;2022-12-18T02:58:12;94536.66;;;9.27;59.81
20037;BME280;10179;42.640;23.312;2022-12-18T03:00:45;94547.09;;;9.21;60.02
20037;BME280;10179;42.640;23.312;2022-12-18T03:05:58;94541.63;;;9.16;60.26
20037;BME280;10179;42.640;23.312;2022-12-18T03:08:28;94559.53;;;9.12;60.24
20037;BME280;10179;42.640;23.312;2022-12-18T03:10:59;94555.31;;;9.11;60.30
20037;BME280;10179;42.640;23.312;2022-12-18T03:13:51;94537.94;;;9.03;60.30
20037;BME280;10179;42.640;23.312;2022-12-18T03:16:26;94003.78;;;5.59;60.19
20037;BME280;10179;42.640;23.312;2022-12-18T03:18:57;94553.44;;;9.05;60.89
20037;BME280;10179;42.640;23.312;2022-12-18T03:21:28;94464.25;;;8.44;60.45
20037;BME280;10179;42.640;23.312;2022-12-18T03:23:55;94519.69;;;8.82;60.69
20037;BME280;10179;42.640;23.312;2022-12-18T03:26:24;94510.44;;;8.86;60.74
20037;BME280;10179;42.640;23.312;2022-12-18T03:28:53;94543.34;;;9.02;60.87
20037;BME280;10179;42.640;23.312;2022-12-18T03:31:23;94550.91;;;9.18;60.47
20037;BME280;10179;42.640;23.312;2022-12-18T03:33:57;94559.03;;;9.23;60.45
20037;BME280;10179;42.640;23.312;2022-12-18T03:36:24;94583.97;;;9.19;60.25
20037;BME280;10179;42.640;23.312;2022-12-18T03:38:50;94588.41;;;9.19;60.10
20037;BME280;10179;42.640;23.312;2022-12-18T03:41:40;94583.03;;;9.27;60.04
20037;BME280;10179;42.640;23.312;2022-12-18T03:44:16;94578.34;;;9.22;59.66
20037;BME280;10179;42.640;23.312;2022-12-18T03:52:30;94598.94;;;9.25;59.05
20037;BME280;10179;42.640;23.312;2022-12-18T03:54:59;94596.47;;;9.17;58.85
20037;BME280;10179;42.640;23.312;2022-12-18T03:57:28;94586.50;;;8.99;58.82
20037;BME280;10179;42.640;23.312;2022-12-18T03:59:58;94498.88;;;8.46;58.78
20037;BME280;10179;42.640;23.312;2022-12-18T04:02:25;94583.88;;;8.99;58.99
20037;BME280;10179;42.640;23.312;2022-12-18T04:04:53;94461.00;;;8.20;58.95
20037;BME280;10179;42.640;23.312;2022-12-18T04:07:21;94613.59;;;9.13;58.86
20037;BME280;10179;42.640;23.312;2022-12-18T04:09:48;94346.78;;;7.50;58.67
20037;BME280;10179;42.640;23.312;2022-12-18T04:12:15;94539.28;;;8.65;58.47
20037;BME280;10179;42.640;23.312;2022-12-18T04:14:41;94603.63;;;9.02;58.58
20037;BME280;10179;42.640;23.312;2022-12-18T04:17:06;94597.56;;;9.01;58.04
20037;BME280;10179;42.640;23.312;2022-12-18T04:19:31;94569.63;;;8.80;58.09
20037;BME280;10179;42.640;23.312;2022-12-18T04:21:57;94631.69;;;9.08;57.80
20037;BME280;10179;42.640;23.312;2022-12-18T04:24:22;94631.88;;;9.06;57.81
20037;BME280;10179;42.640;23.312;2022-12-18T04:26:48;94572.66;;;8.56;57.80
20037;BME280;10179;42.640;23.312;2022-12-18T04:29:13;94603.66;;;8.80;57.77
20037;BME280;10179;42.640;23.312;2022-12-18T04:31:38;94598.19;;;8.75;57.58
20037;BME280;10179;42.640;23.312;2022-12-18T04:34:04;94653.41;;;9.02;57.93
20037;BME280;10179;42.640;23.312;2022-12-18T04:36:29;94648.78;;;9.04;57.60
20037;BME280;10179;42.640;23.312;2022-12-18T04:38:55;94654.03;;;9.04;57.49
20037;BME280;10179;42.640;23.312;2022-12-18T04:41:21;94655.66;;;9.05;57.42
20037;BME280;10179;42.640;23.312;2022-12-18T04:43:46;94660.88;;;9.05;57.00
20037;BME280;10179;42.640;23.312;2022-12-18T04:46:11;94672.16;;;9.05;56.85
20037;BME280;10179;42.640;23.312;2022-12-18T04:48:37;94590.31;;;8.47;56.60
20037;BME280;10179;42.640;23.312;2022-12-18T04:51:04;94574.66;;;8.32;56.41
20037;BME280;10179;42.640;23.312;2022-12-18T04:53:29;94602.81;;;8.52;56.18
20037;BME280;10179;42.640;23.312;2022-12-18T04:56:05;94674.34;;;9.02;56.33
20037;BME280;10179;42.640;23.312;2022-12-18T04:58:31;94680.38;;;8.96;56.44
20037;BME280;10179;42.640;23.312;2022-12-18T05:00:56;94679.56;;;8.95;56.44
20037;BME280;10179;42.640;23.312;2022-12-18T05:03:22;94653.81;;;8.77;56.32
20037;BME280;10179;42.640;23.312;2022-12-18T05:05:51;94552.88;;;8.10;56.31
20037;BME280;10179;42.640;23.312;2022-12-18T05:08:16;94570.28;;;8.18;55.87
20037;BME280;10179;42.640;23.312;2022-12-18T05:10:42;94685.34;;;8.91;56.04
20037;BME280;10179;42.640;23.312;2022-12-18T05:13:07;94695.84;;;8.91;55.98
20037;BME280;10179;42.640;23.312;2022-12-18T05:15:33;94699.09;;;8.93;56.20
20037;BME280;10179;42.640;23.312;2022-12-18T05:17:59;94555.19;;;7.99;56.21
20037;BME280;10179;42.640;23.312;2022-12-18T05:20:26;94526.94;;;7.87;56.22
20037;BME280;10179;42.640;23.312;2022-12-18T05:22:52;94699.91;;;8.93;56.19
20037;BME280;10179;42.640;23.312;2022-12-18T05:25:18;94701.50;;;8.94;56.19
20037;BME280;10179;42.640;23.312;2022-12-18T05:27:44;94675.91;;;8.68;55.87
20037;BME280;10179;42.640;23.312;2022-12-18T05:30:10;94720.06;;;8.93;56.03
20037;BME280;10179;42.640;23.312;2022-12-18T05:32:36;94568.78;;;7.87;55.97
20037;BME280;10179;42.640;23.312;2022-12-18T05:35:03;94699.09;;;8.71;56.06
20037;BME280;10179;42.640;23.312;2022-12-18T05:37:28;94740.38;;;8.91;55.96
20037;BME280;10179;42.640;23.312;2022-12-18T05:39:54;94664.88;;;8.36;55.98
20037;BME280;10179;42.640;23.312;2022-12-18T05:42:19;94660.28;;;8.39;56.18
20037;BME280;10179;42.640;23.312;2022-12-18T05:44:45;94749.00;;;8.84;56.22
20037;BME280;10179;42.640;23.312;2022-12-18T05:47:10;94745.19;;;8.87;56.04
20037;BME280;10179;42.640;23.312;2022-12-18T05:49:35;94718.84;;;8.74;55.99
20037;BME280;10179;42.640;23.312;2022-12-18T05:52:01;94703.81;;;8.61;55.84
20037;BME280;10179;42.640;23.312;2022-12-18T05:54:27;94745.94;;;8.81;55.22
20037;BME280;10179;42.640;23.312;2022-12-18T05:56:53;94502.41;;;7.16;55.26
20037;BME280;10179;42.640;23.312;2022-12-18T05:59:19;94698.75;;;8.23;55.24
20037;BME280;10179;42.640;23.312;2022-12-18T06:01:44;94613.78;;;7.68;55.25
20037;BME280;10179;42.640;23.312;2022-12-18T06:04:10;94759.53;;;8.55;55.54
20037;BME280;10179;42.640;23.312;2022-12-18T06:06:35;94762.53;;;8.52;55.96
20037;BME280;10179;42.640;23.312;2022-12-18T06:09:02;94741.50;;;8.30;55.79
20037;BME280;10179;42.640;23.312;2022-12-18T06:11:34;94635.72;;;7.67;55.85
20037;BME280;10179;42.640;23.312;2022-12-18T06:14:00;94746.50;;;8.40;56.03
20037;BME280;10179;42.640;23.312;2022-12-18T06:16:26;94761.91;;;8.50;56.37
20037;BME280;10179;42.640;23.312;2022-12-18T06:18:52;94766.75;;;8.53;56.42
20037;BME280;10179;42.640;23.312;2022-12-18T06:21:18;94773.63;;;8.54;56.10
20037;BME280;10179;42.640;23.312;2022-12-18T06:23:43;94778.50;;;8.57;56.38
20037;BME280;10179;42.640;23.312;2022-12-18T06:26:11;94778.97;;;8.60;56.19
20037;BME280;10179;42.640;23.312;2022-12-18T06:28:37;94774.69;;;8.59;55.97
20037;BME280;10179;42.640;23.312;2022-12-18T06:31:04;94785.00;;;8.61;56.17
20037;BME280;10179;42.640;23.312;2022-12-18T06:33:29;94778.59;;;8.64;55.58
20037;BME280;10179;42.640;23.312;2022-12-18T06:36:00;94619.78;;;7.62;55.64
20037;BME280;10179;42.640;23.312;2022-12-18T06:38:26;94762.66;;;8.44;55.27
20037;BME280;10179;42.640;23.312;2022-12-18T06:40:52;94795.72;;;8.66;55.08
20037;BME280;10179;42.640;23.312;2022-12-18T06:43:17;94741.97;;;8.34;54.97
20037;BME280;10179;42.640;23.312;2022-12-18T06:45:42;94791.13;;;8.68;54.94
20037;BME280;10179;42.640;23.312;2022-12-18T06:48:08;94796.16;;;8.70;54.57
20037;BME280;10179;42.640;23.312;2022-12-18T06:50:33;94801.25;;;8.71;54.86
20037;BME280;10179;42.640;23.312;2022-12-18T06:52:59;94724.91;;;8.23;54.44
20037;BME280;10179;42.640;23.312;2022-12-18T06:55:24;94634.00;;;7.59;54.36
20037;BME280;10179;42.640;23.312;2022-12-18T06:57:50;94777.88;;;8.55;54.24
20037;BME280;10179;42.640;23.312;2022-12-18T07:00:16;94552.06;;;7.16;53.87
20037;BME280;10179;42.640;23.312;2022-12-18T07:02:41;94815.03;;;8.80;53.63
20037;BME280;10179;42.640;23.312;2022-12-18T07:05:07;94783.47;;;8.52;53.80
20037;BME280;10179;42.640;23.312;2022-12-18T07:07:34;94845.66;;;8.79;53.17
20037;BME280;10179;42.640;23.312;2022-12-18T07:09:59;94821.06;;;8.80;53.24
20037;BME280;10179;42.640;23.312;2022-12-18T07:12:26;94822.72;;;8.81;53.46
20037;BME280;10179;42.640;23.312;2022-12-18T07:14:52;94743.56;;;8.35;53.07
20037;BME280;10179;42.640;23.312;2022-12-18T07:17:17;94829.56;;;8.82;52.96
20037;BME280;10179;42.640;23.312;2022-12-18T07:19:43;94825.94;;;8.83;53.12
20037;BME280;10179;42.640;23.312;2022-12-18T07:22:08;94813.78;;;8.76;52.88
20037;BME280;10179;42.640;23.312;2022-12-18T07:24:33;94793.22;;;8.58;52.87
20037;BME280;10179;42.640;23.312;2022-12-18T07:27:00;94767.25;;;8.42;52.56
20037;BME280;10179;42.640;23.312;2022-12-18T07:29:25;94831.81;;;8.86;52.35
20037;BME280;10179;42.640;23.312;2022-12-18T07:31:50;94864.25;;;8.84;52.41
20037;BME280;10179;42.640;23.312;2022-12-18T07:34:16;94783.75;;;8.42;52.23
20037;BME280;10179;42.640;23.312;2022-12-18T07:36:42;94669.34;;;7.55;51.61
20037;BME280;10179;42.640;23.312;2022-12-18T07:39:07;94860.19;;;8.82;51.89
20037;BME280;10179;42.640;23.312;2022-12-18T07:41:33;94856.94;;;8.80;52.36
20037;BME280;10179;42.640;23.312;2022-12-18T07:43:58;94857.38;;;8.83;52.08
20037;BME280;10179;42.640;23.312;2022-12-18T07:46:24;94860.63;;;8.86;52.03
20037;BME280;10179;42.640;23.312;2022-12-18T07:48:49;94860.63;;;8.86;52.31
20037;BME280;10179;42.640;23.312;2022-12-18T07:51:15;94867.50;;;8.87;52.25
20037;BME280;10179;42.640;23.312;2022-12-18T07:53:41;94874.34;;;8.88;51.97
20037;BME280;10179;42.640;23.312;2022-12-18T07:56:09;94849.28;;;8.78;52.08
20037;BME280;10179;42.640;23.312;2022-12-18T07:58:35;94874.34;;;8.88;52.04
20037;BME280;10179;42.640;23.312;2022-12-18T08:01:09;94772.56;;;8.33;51.73
20037;BME280;10179;42.640;23.312;2022-12-18T08:03:36;94832.38;;;8.66;51.79
20037;BME280;10179;42.640;23.312;2022-12-18T08:06:04;94881.31;;;8.95;51.79
20037;BME280;10179;42.640;23.312;2022-12-18T08:08:30;94862.25;;;8.87;51.72
20037;BME280;10179;42.640;23.312;2022-12-18T08:10:56;94870.75;;;8.89;51.77
20037;BME280;10179;42.640;23.312;2022-12-18T08:13:22;94897.84;;;8.96;52.10
20037;BME280;10179;42.640;23.312;2022-12-18T08:16:03;94932.81;;;8.88;51.88
20037;BME280;10179;42.640;23.312;2022-12-18T08:18:29;94902.19;;;8.89;51.93
20037;BME280;10179;42.640;23.312;2022-12-18T08:20:55;94847.69;;;8.48;52.48
20037;BME280;10179;42.640;23.312;2022-12-18T08:23:20;94915.00;;;8.83;52.58
20037;BME280;10179;42.640;23.312;2022-12-18T08:25:46;94657.72;;;7.28;52.39
20037;BME280;10179;42.640;23.312;2022-12-18T08:28:12;94892.69;;;8.73;52.32
20037;BME280;10179;42.640;23.312;2022-12-18T08:30:37;94779.00;;;8.01;52.48
20037;BME280;10179;42.640;23.312;2022-12-18T08:33:03;94833.31;;;8.29;52.18
20037;BME280;10179;42.640;23.312;2022-12-18T08:35:29;94870.97;;;8.43;52.50
20037;BME280;10179;42.640;23.312;2022-12-18T08:37:54;94924.94;;;8.73;52.65
20037;BME280;10179;42.640;23.312;2022-12-18T08:40:20;94930.19;;;8.73;52.48
20037;BME280;10179;42.640;23.312;2022-12-18T08:42:45;94913.31;;;8.61;52.76
20037;BME280;10179;42.640;23.312;2022-12-18T08:45:29;94651.16;;;6.94;52.68
20037;BME280;10179;42.640;23.312;2022-12-18T08:47:54;94917.75;;;8.60;52.98
20037;BME280;10179;42.640;23.312;2022-12-18T08:50:20;94837.25;;;8.10;53.13
20037;BME280;10179;42.640;23.312;2022-12-18T08:52:45;94820.03;;;8.01;52.83
20037;BME280;10179;42.640;23.312;2022-12-18T08:55:11;94935.41;;;8.73;52.81
20037;BME280;10179;42.640;23.312;2022-12-18T08:57:36;94815.78;;;8.00;52.83
20037;BME280;10179;42.640;23.312;2022-12-18T09:00:03;94909.44;;;8.57;53.19
20037;BME280;10179;42.640;23.312;2022-12-18T09:02:29;94851.69;;;8.06;53.20
20037;BME280;10179;42.640;23.312;2022-12-18T09:04:54;94902.00;;;8.46;53.16
20037;BME280;10179;42.640;23.312;2022-12-18T09:07:20;94905.72;;;8.51;53.23
20037;BME280;10179;42.640;23.312;2022-12-18T09:09:45;94922.78;;;8.62;53.13
20037;BME280;10179;42.640;23.312;2022-12-18T09:12:10;94892.59;;;8.36;53.10
20037;BME280;10179;42.640;23.312;2022-12-18T09:14:36;94924.34;;;8.56;53.37
20037;BME280;10179;42.640;23.312;2022-12-18T09:17:01;94928.94;;;8.54;53.60
20037;BME280;10179;42.640;23.312;2022-12-18T09:19:27;94853.28;;;7.77;53.69
20037;BME280;10179;42.640;23.312;2022-12-18T09:21:52;94795.84;;;7.69;53.44
20037;BME280;10179;42.640;23.312;2022-12-18T09:24:18;94924.59;;;8.47;53.65
20037;BME280;10179;42.640;23.312;2022-12-18T09:26:43;94816.03;;;7.75;53.72
20037;BME280;10179;42.640;23.312;2022-12-18T09:29:09;94862.97;;;8.06;53.99
20037;BME280;10179;42.640;23.312;2022-12-18T09:31:35;94920.97;;;8.48;54.29
20037;BME280;10179;42.640;23.312;2022-12-18T09:34:01;94887.06;;;8.31;53.77
20037;BME280;10179;42.640;23.312;2022-12-18T09:36:26;94933.00;;;8.57;53.91
20037;BME280;10179;42.640;23.312;2022-12-18T09:38:52;94889.34;;;8.34;53.85
20037;BME280;10179;42.640;23.312;2022-12-18T09:41:40;94921.63;;;8.65;53.70
20037;BME280;10179;42.640;23.312;2022-12-18T09:46:48;94928.38;;;8.59;53.50
20037;BME280;10179;42.640;23.312;2022-12-18T09:49:18;94834.09;;;8.00;53.83
20037;BME280;10179;42.640;23.312;2022-12-18T09:52:03;94675.75;;;7.23;53.56
20037;BME280;10179;42.640;23.312;2022-12-18T09:54:38;94929.66;;;8.78;53.86
20037;BME280;10179;42.640;23.312;2022-12-18T09:57:15;94893.97;;;8.62;53.69
20037;BME280;10179;42.640;23.312;2022-12-18T09:59:47;94925.94;;;8.87;53.46
20037;BME280;10179;42.640;23.312;2022-12-18T10:02:17;94918.56;;;9.12;53.23
20037;BME280;10179;42.640;23.312;2022-12-18T10:04:43;94784.50;;;7.92;52.83
20037;BME280;10179;42.640;23.312;2022-12-18T10:07:25;94916.88;;;9.04;52.47
20037;BME280;10179;42.640;23.312;2022-12-18T10:10:10;94917.31;;;9.08;51.92
20037;BME280;10179;42.640;23.312;2022-12-18T10:12:46;94919.31;;;9.06;51.56
20037;BME280;10179;42.640;23.312;2022-12-18T10:15:38;94931.44;;;9.07;50.88
20037;BME280;10179;42.640;23.312;2022-12-18T10:21:03;94880.53;;;8.65;50.54
20037;BME280;10179;42.640;23.312;2022-12-18T10:26:10;94807.94;;;8.00;50.74
20037;BME280;10179;42.640;23.312;2022-12-18T10:28:38;94939.84;;;8.73;51.00
20037;BME280;10179;42.640;23.312;2022-12-18T10:31:14;94931.44;;;8.77;51.03
20037;BME280;10179;42.640;23.312;2022-12-18T10:33:41;94943.13;;;8.60;50.64
20037;BME280;10179;42.640;23.312;2022-12-18T10:36:06;94888.19;;;8.52;51.39
20037;BME280;10179;42.640;23.312;2022-12-18T10:38:32;94891.72;;;8.59;51.18
20037;BME280;10179;42.640;23.312;2022-12-18T10:43:33;94929.34;;;8.88;50.93
20037;BME280;10179;42.640;23.312;2022-12-18T10:48:48;94927.91;;;9.00;50.55
20037;BME280;10179;42.640;23.312;2022-12-18T10:51:28;94922.41;;;8.95;50.07
20037;BME280;10179;42.640;23.312;2022-12-18T10:53:57;94932.63;;;8.90;49.79
20037;BME280;10179;42.640;23.312;2022-12-18T10:56:26;94834.13;;;8.15;49.83
20037;BME280;10179;42.640;23.312;2022-12-18T10:59:02;94922.03;;;8.98;49.81
20037;BME280;10179;42.640;23.312;2022-12-18T11:01:54;94933.75;;;9.02;48.78
20037;BME280;10179;42.640;23.312;2022-12-18T11:04:31;94831.66;;;8.28;48.33
20037;BME280;10179;42.640;23.312;2022-12-18T11:07:02;94902.25;;;8.80;48.34
20037;BME280;10179;42.640;23.312;2022-12-18T11:09:39;94906.53;;;8.81;48.30
20037;BME280;10179;42.640;23.312;2022-12-18T11:12:19;94926.38;;;8.91;47.78
20037;BME280;10179;42.640;23.312;2022-12-18T11:14:53;94914.38;;;8.67;47.83
20037;BME280;10179;42.640;23.312;2022-12-18T11:17:34;94883.41;;;8.70;47.59
20037;BME280;10179;42.640;23.312;2022-12-18T11:20:05;94931.97;;;8.88;47.67
20037;BME280;10179;42.640;23.312;2022-12-18T11:22:36;94917.19;;;8.65;48.01
20037;BME280;10179;42.640;23.312;2022-12-18T11:25:18;94855.28;;;8.43;47.82
20037;BME280;10179;42.640;23.312;2022-12-18T11:27:49;94907.69;;;8.79;47.83
20037;BME280;10179;42.640;23.312;2022-12-18T11:30:29;94924.03;;;8.96;47.34
20037;BME280;10179;42.640;23.312;2022-12-18T11:38:23;94908.22;;;8.89;46.94
20037;BME280;10179;42.640;23.312;2022-12-18T11:41:24;94927.19;;;9.06;46.77
20037;BME280;10179;42.640;23.312;2022-12-18T11:44:11;94915.44;;;8.87;46.33
20037;BME280;10179;42.640;23.312;2022-12-18T11:46:49;94795.59;;;8.08;46.10
20037;BME280;10179;42.640;23.312;2022-12-18T11:49:26;94908.22;;;8.89;46.02
20037;BME280;10179;42.640;23.312;2022-12-18T11:52:18;94927.00;;;9.07;45.69
20037;BME280;10179;42.640;23.312;2022-12-18T11:54:46;94834.56;;;8.33;45.52
20037;BME280;10179;42.640;23.312;2022-12-18T12:00:19;94882.31;;;8.79;45.47
20037;BME280;10179;42.640;23.312;2022-12-18T12:08:37;94920.41;;;8.97;46.08
20037;BME280;10179;42.640;23.312;2022-12-18T12:24:10;94924.56;;;9.06;46.59
20037;BME280;10179;42.640;23.312;2022-12-18T12:35:39;94931.63;;;8.91;46.41
20037;BME280;10179;42.640;23.312;2022-12-18T12:40:51;94943.75;;;8.92;46.21
20037;BME280;10179;42.640;23.312;2022-12-18T12:43:32;94940.94;;;8.93;46.26
20037;BME280;10179;42.640;23.312;2022-12-18T12:46:05;94784.28;;;7.93;46.00
20037;BME280;10179;42.640;23.312;2022-12-18T12:51:08;94936.50;;;8.94;46.71
20037;BME280;10179;42.640;23.312;2022-12-18T12:53:37;94887.38;;;8.66;46.76
20037;BME280;10179;42.640;23.312;2022-12-18T12:56:04;94881.25;;;8.59;46.42
20037;BME280;10179;42.640;23.312;2022-12-18T12:58:55;94948.41;;;9.11;46.47
20037;BME280;10179;42.640;23.312;2022-12-18T13:04:02;94947.50;;;9.04;46.82
20037;BME280;10179;42.640;23.312;2022-12-18T13:06:53;94952.56;;;9.05;46.92
20037;BME280;10179;42.640;23.312;2022-12-18T13:09:22;94950.31;;;9.02;46.86
20037;BME280;10179;42.640;23.312;2022-12-18T13:11:48;94884.50;;;8.61;47.05
20037;BME280;10179;42.640;23.312;2022-12-18T13:14:40;94961.34;;;9.13;47.50
20037;BME280;10179;42.640;23.312;2022-12-18T13:20:19;94952.84;;;9.11;47.07
20037;BME280;10179;42.640;23.312;2022-12-18T13:22:46;94985.47;;;9.08;47.54
20037;BME280;10179;42.640;23.312;2022-12-18T13:25:35;94969.66;;;9.16;47.30
20037;BME280;10179;42.640;23.312;2022-12-18T13:28:05;94975.34;;;9.05;47.51
20037;BME280;10179;42.640;23.312;2022-12-18T13:36:16;94993.59;;;9.13;47.56
20037;BME280;10179;42.640;23.312;2022-12-18T13:38:43;94991.69;;;9.07;47.68
20037;BME280;10179;42.640;23.312;2022-12-18T13:43:46;94979.97;;;9.03;47.68
20037;BME280;10179;42.640;23.312;2022-12-18T13:46:42;94995.75;;;9.24;47.58
20037;BME280;10179;42.640;23.312;2022-12-18T13:51:46;94970.41;;;8.95;47.40
20037;BME280;10179;42.640;23.312;2022-12-18T13:54:25;94999.75;;;9.20;47.42
20037;BME280;10179;42.640;23.312;2022-12-18T13:56:53;94961.19;;;8.84;47.17
20037;BME280;10179;42.640;23.312;2022-12-18T13:59:33;95008.31;;;9.14;47.49
20037;BME280;10179;42.640;23.312;2022-12-18T14:02:04;94995.03;;;9.01;47.13
20037;BME280;10179;42.640;23.312;2022-12-18T14:04:33;95010.13;;;9.14;47.27
20037;BME280;10179;42.640;23.312;2022-12-18T14:07:15;95012.75;;;9.14;47.37
20037;BME280;10179;42.640;23.312;2022-12-18T14:12:22;94986.81;;;9.04;47.38
20037;BME280;10179;42.640;23.312;2022-12-18T14:15:20;95011.31;;;9.11;47.61
20037;BME280;10179;42.640;23.312;2022-12-18T14:17:49;94975.00;;;8.78;47.69
20037;BME280;10179;42.640;23.312;2022-12-18T14:20:17;94958.44;;;8.63;47.92
20037;BME280;10179;42.640;23.312;2022-12-18T14:22:44;94985.47;;;8.78;48.01
20037;BME280;10179;42.640;23.312;2022-12-18T14:25:23;95024.41;;;9.11;47.91
20037;BME280;10179;42.640;23.312;2022-12-18T14:27:52;95027.75;;;9.05;47.56
20037;BME280;10179;42.640;23.312;2022-12-18T14:30:25;95023.31;;;9.05;47.45
20037;BME280;10179;42.640;23.312;2022-12-18T14:33:21;95024.69;;;9.16;46.78
20037;BME280;10179;42.640;23.312;2022-12-18T14:36:13;95007.53;;;8.99;46.86
20037;BME280;10179;42.640;23.312;2022-12-18T14:38:40;94739.41;;;7.22;46.68
20037;BME280;10179;42.640;23.312;2022-12-18T14:41:11;95016.00;;;9.01;46.56
20037;BME280;10179;42.640;23.312;2022-12-18T14:43:39;95015.75;;;8.96;46.33
20037;BME280;10179;42.640;23.312;2022-12-18T14:46:25;95021.16;;;8.94;46.18
20037;BME280;10179;42.640;23.312;2022-12-18T14:48:51;95015.09;;;8.94;46.03
20037;BME280;10179;42.640;23.312;2022-12-18T14:51:21;95019.16;;;8.96;46.21
20037;BME280;10179;42.640;23.312;2022-12-18T14:53:49;95023.97;;;8.93;46.52